Main page
METAR-TAF:

METAR-TAF

Airports :

Budapest Ferenc Liszt International Airport

Budapest, Hungary

latitude: 47-26N, longitude: 019-16E, elevation: 151 m

Current weather observation

The report was made 26 minutes ago, at 21:00 UTC
Wind 10 kt from the Northwest
Temperature -3°C
Humidity 68%
Pressure 1026 hPa
Visibility 10 km or more
no clouds below 1500 m and no cumulonimbus

METAR: LHBP 222100Z 32010KT CAVOK M03/M08 Q1026 NOSIG

Time: 22:26 (21:26 UTC)

Forecast

The report was made 4 hours and 11 minutes ago, at 17:15 UTC
Forecast valid from 22 at 18 UTC to 23 at 18 UTC
Wind 14 kt from the North/Northwest
Visibility 10 km or more
no clouds below 1500 m and no cumulonimbus
Becoming
from 22 at 19 UTC to 22 at 22 UTC
Wind 8 kt from the Northwest
Becoming
from 23 at 13 UTC to 23 at 16 UTC
Wind 3 kt from variable directions

TAF: LHBP 221715Z 2218/2318 33014KT CAVOK BECMG 2219/2222 31008KT BECMG 2313/2316 VRB03KT

Weather observations and forecasts of more than 4000 airports (METAR and TAF reports).

The available stations are represented by yellow and red dots on the map.

Hover mouse over dot to see the name of the station.

Then click to see weather observations and forecasts.

To change the map : click on the green buttons with a black cross to zoom in, on the green button with a dash to zoom out, or on the green arrows for adjacent maps.


METAR-TAF: